Data for 09/24/2006

Time Sea-Level Adjusted Pressure Absolute Pressure Temperature Relative Humidity Dew Point   
(mb) (inHg) (mb) (inHg) (C) (F) (%) (C) (F)
00:05 1025 30.27 854 25.22 4.8 40.6 68 -0.6 30.8
00:10 1025 30.27 854 25.22 5.2 41.3 67 -0.6 31
00:15 1025 30.27 854 25.22 5.1 41.2 67 -0.4 31.2
00:20 1025 30.27 854 25.22 5 41 68 -0.4 31.2
00:25 1025 30.27 854 25.22 4.9 40.9 68 -0.4 31.3
00:30 1025 30.27 854 25.22 4.9 40.8 69 -0.4 31.3
00:35 1025 30.27 854 25.22 4.8 40.6 69 -0.3 31.4
00:40 1025 30.27 854 25.22 4.6 40.3 70 -0.3 31.4
00:45 1025 30.27 854 25.22 4.3 39.7 71 -0.6 30.9
00:50 1025 30.27 854 25.22 4.5 40.2 69 -0.7 30.8
00:55 1025 30.27 854 25.22 4.4 39.9 71 -0.4 31.3
01:00 1025 30.27 854 25.22 4.1 39.4 73 -0.2 31.6
01:05 1025 30.27 854 25.22 3.7 38.7 74 -0.4 31.2
01:10 1025 30.27 854 25.22 3.4 38.2 76 -0.4 31.2
01:15 1025 30.27 854 25.22 3.5 38.4 73 -0.8 30.6
01:20 1025 30.27 854 25.22 3.9 39 73 -0.6 31
01:25 1025 30.27 854 25.22 3.6 38.5 75 -0.4 31.4
01:30 1025 30.27 854 25.22 3.3 37.9 76 -0.6 30.9
01:35 1025 30.27 854 25.22 3.7 38.7 73 -0.7 30.8
01:40 1025 30.27 855 25.25 4.1 39.4 68 -1.2 29.9
01:45 1025 30.27 855 25.25 4.8 40.7 68 -0.6 30.8
01:50 1025 30.27 855 25.25 4.6 40.3 70 -0.4 31.3
01:55 1025 30.27 855 25.25 4.3 39.7 71 -0.6 30.9
02:00 1025 30.27 855 25.25 4.2 39.6 72 -0.3 31.4
02:05 1026 30.3 855 25.25 3.7 38.6 75 -0.3 31.4
02:10 1026 30.3 855 25.25 3.4 38.1 77 -0.3 31.4
02:15 1026 30.3 855 25.25 3.2 37.8 77 -0.4 31.2
02:20 1026 30.3 855 25.25 3.8 38.8 73 -0.7 30.7
02:25 1026 30.3 855 25.25 3.8 38.8 76 -0.2 31.7
02:30 1026 30.3 855 25.25 3.1 37.6 78 -0.4 31.3
02:35 1026 30.3 855 25.25 3 37.4 79 -0.3 31.4
02:40 1026 30.3 855 25.25 3 37.4 79 -0.3 31.5
02:45 1026 30.3 855 25.25 3.1 37.5 78 -0.4 31.3
02:50 1026 30.3 855 25.25 3.1 37.6 77 -0.6 31
02:55 1026 30.3 855 25.25 3.2 37.7 76 -0.6 30.9
03:00 1026 30.3 855 25.25 3.5 38.3 74 -0.7 30.7
03:05 1026 30.3 855 25.25 3.7 38.7 73 -0.7 30.8
03:10 1026 30.3 855 25.25 3.8 38.8 73 -0.6 31
03:15 1026 30.3 855 25.25 3.8 38.8 74 -0.4 31.3
03:20 1026 30.3 855 25.25 3.5 38.3 76 -0.4 31.3
03:25 1026 30.3 855 25.25 3.3 37.9 77 -0.4 31.2
03:30 1026 30.3 855 25.25 3.3 38 77 -0.4 31.4
03:35 1026 30.3 855 25.25 3 37.4 78 -0.4 31.2
03:40 1026 30.3 855 25.25 3.1 37.5 77 -0.5 31
03:45 1026 30.3 855 25.25 3.1 37.6 77 -0.5 31.2
03:50 1026 30.3 855 25.25 2.8 37 79 -0.4 31.2
03:55 1026 30.3 855 25.25 2.6 36.7 81 -0.4 31.3
04:00 1026 30.3 855 25.25 2.6 36.6 81 -0.4 31.3
04:05 1026 30.3 855 25.25 2.1 35.8 83 -0.5 31
04:10 1026 30.3 855 25.25 2.2 35.9 82 -0.6 30.9
04:15 1026 30.3 855 25.25 2.6 36.6 80 -0.5 31.1
04:20 1026 30.3 855 25.25 2.7 36.8 80 -0.4 31.3
04:25 1026 30.3 855 25.25 2.7 36.8 80 -0.4 31.2
04:30 1026 30.3 855 25.25 2.5 36.5 81 -0.4 31.2
04:35 1026 30.3 855 25.25 2.3 36.1 83 -0.4 31.3
04:40 1026 30.3 855 25.25 2.3 36.1 82 -0.5 31.1
04:45 1026 30.3 855 25.25 2.4 36.3 82 -0.4 31.3
04:50 1026 30.3 855 25.25 2.3 36.2 82 -0.4 31.3
04:55 1026 30.3 855 25.25 2.1 35.8 83 -0.5 31.1
05:00 1026 30.3 855 25.25 2.1 35.7 83 -0.6 31
05:05 1026 30.3 855 25.25 2.1 35.8 82 -0.6 30.8
05:10 1026 30.3 855 25.25 2.3 36.1 82 -0.6 30.9
05:15 1026 30.3 855 25.25 2.3 36.1 81 -0.6 30.9
05:20 1026 30.3 855 25.25 2.4 36.2 81 -0.5 31.1
05:25 1026 30.3 855 25.25 2.4 36.3 81 -0.5 31
05:30 1026 30.3 855 25.25 2.5 36.5 81 -0.5 31.1
05:35 1026 30.3 855 25.25 2.6 36.6 80 -0.5 31.1
05:40 1026 30.3 855 25.25 2.6 36.7 80 -0.5 31.1
05:45 1026 30.3 855 25.25 2.7 36.8 80 -0.5 31.1
05:50 1026 30.3 855 25.25 2.7 36.8 80 -0.5 31.2
05:55 1026 30.3 855 25.25 2.8 37.1 79 -0.5 31.2
06:00 1026 30.3 855 25.25 2.9 37.3 79 -0.4 31.2
06:05 1026 30.3 855 25.25 2.9 37.2 79 -0.5 31.2
06:10 1026 30.3 855 25.25 2.9 37.2 79 -0.4 31.3
06:15 1026 30.3 855 25.25 2.9 37.2 79 -0.4 31.3
06:20 1026 30.3 855 25.25 3 37.3 78 -0.5 31.2
06:25 1026 30.3 855 25.25 3 37.4 79 -0.3 31.4
06:30 1026 30.3 855 25.25 2.8 37.1 80 -0.2 31.6
06:35 1026 30.3 855 25.25 2.8 37 80 -0.4 31.3
06:40 1026 30.3 855 25.25 2.7 36.9 80 -0.4 31.3
06:45 1026 30.3 855 25.25 2.8 37 79 -0.4 31.2
06:50 1026 30.3 855 25.25 2.8 37 80 -0.3 31.4
06:55 1026 30.3 855 25.25 2.8 37 79 -0.5 31.2
07:00 1026 30.3 855 25.25 2.8 37 79 -0.4 31.2
07:05 1026 30.3 855 25.25 2.6 36.7 80 -0.4 31.3
07:10 1026 30.3 855 25.25 2.4 36.2 81 -0.6 31
07:15 1026 30.3 855 25.25 2.4 36.2 81 -0.6 31
07:20 1026 30.3 855 25.25 2.5 36.5 80 -0.5 31
07:25 1026 30.3 855 25.25 2.5 36.5 81 -0.5 31.1
07:30 1026 30.3 856 25.28 2.4 36.4 80 -0.6 30.9
07:35 1026 30.3 856 25.28 2.7 36.9 79 -0.6 30.9
07:40 1026 30.3 856 25.28 3.3 37.9 77 -0.3 31.4
07:45 1026 30.3 856 25.28 3.8 38.8 74 -0.5 31.1
07:50 1027 30.33 856 25.28 3.8 38.8 74 -0.4 31.3
07:55 1027 30.33 856 25.28 3.4 38.1 77 -0.3 31.4
08:00 1027 30.33 856 25.28 3.1 37.5 78 -0.3 31.4
08:05 1027 30.33 856 25.28 3 37.5 77 -0.5 31
08:10 1027 30.33 856 25.28 3.1 37.6 77 -0.4 31.2
08:15 1027 30.33 856 25.28 3.1 37.6 78 -0.4 31.2
08:20 1027 30.33 856 25.28 3.2 37.8 77 -0.4 31.3
08:25 1027 30.33 856 25.28 3.3 38 77 -0.4 31.3
08:30 1027 30.33 856 25.28 3.4 38.2 76 -0.4 31.3
08:35 1027 30.33 856 25.28 3.6 38.5 76 -0.2 31.7
08:40 1027 30.33 856 25.28 3.8 38.9 76 -0.1 31.9
08:45 1027 30.33 856 25.28 4 39.2 77 0.3 32.5
08:50 1027 30.33 856 25.28 4 39.3 76 0.2 32.4
08:55 1027 30.33 856 25.28 4.1 39.5 78 0.6 33
09:00 1027 30.33 856 25.28 4.2 39.6 78 0.7 33.3
09:05 1027 30.33 856 25.28 4.3 39.7 78 0.8 33.4
09:10 1027 30.33 856 25.28 4.4 39.9 79 1 33.8
09:15 1027 30.33 856 25.28 4.6 40.2 78 1.1 33.9
09:20 1027 30.33 856 25.28 4.7 40.5 77 1 33.9
09:25 1027 30.33 856 25.28 4.9 40.8 78 1.4 34.5
09:30 1027 30.33 856 25.28 5.1 41.1 77 1.3 34.4
09:35 1027 30.33 856 25.28 5.2 41.4 75 1.2 34.2
09:40 1027 30.33 856 25.28 5.5 42 74 1.3 34.3
09:45 1027 30.33 856 25.28 5.9 42.7 71 1.1 34
09:50 1027 30.33 856 25.28 6.1 42.9 72 1.5 34.7
09:55 1027 30.33 856 25.28 6.4 43.5 70 1.3 34.4
10:00 1027 30.33 856 25.28 6.6 43.9 69 1.4 34.6
10:05 1027 30.33 856 25.28 6.9 44.5 68 1.5 34.8
10:10 1027 30.33 856 25.28 7.3 45.2 68 1.9 35.4
10:15 1027 30.33 856 25.28 7.7 45.8 66 1.8 35.3
10:20 1027 30.33 856 25.28 7.8 46 66 1.8 35.3
10:25 1027 30.33 856 25.28 7.9 46.2 64 1.5 34.8
10:30 1027 30.33 856 25.28 8.4 47 62 1.6 34.9
10:35 1027 30.33 857 25.31 8.8 47.8 57 0.7 33.3
10:40 1027 30.33 856 25.28 9.3 48.8 55 0.7 33.2
10:45 1027 30.33 856 25.28 9.7 49.4 52 0.4 32.6
10:50 1027 30.33 856 25.28 9.9 49.8 51 0.3 32.6
10:55 1027 30.33 856 25.28 10.3 50.5 48 -0.3 31.5
11:00 1027 30.33 856 25.28 10.5 50.8 51 0.9 33.6
11:05 1027 30.33 856 25.28 10.2 50.3 49 0.1 32.2
11:10 1027 30.33 856 25.28 10.2 50.3 50 0.1 32.2
11:15 1027 30.33 856 25.28 10.4 50.7 47 -0.4 31.3
11:20 1027 30.33 856 25.28 10.8 51.4 46 -0.2 31.6
11:25 1027 30.33 856 25.28 10.9 51.7 45 -0.5 31.2
11:30 1027 30.33 856 25.28 11.4 52.4 46 0.1 32.2
11:35 1027 30.33 856 25.28 10.9 51.6 44 -0.8 30.6
11:40 1027 30.33 856 25.28 11.1 51.9 44 -0.6 31
11:45 1027 30.33 856 25.28 11.5 52.7 43 -0.5 31.1
11:50 1027 30.33 856 25.28 10.9 51.7 44 -0.7 30.8
11:55 1027 30.33 856 25.28 11.1 52 44 -0.8 30.6
12:00 1027 30.33 856 25.28 11.4 52.5 43 -0.6 30.9
12:05 1027 30.33 856 25.28 11.2 52.2 45 -0.3 31.4
12:10 1027 30.33 856 25.28 11.4 52.5 45 -0.2 31.7
12:15 1027 30.33 856 25.28 11.8 53.2 42 -0.7 30.8
12:20 1027 30.33 856 25.28 11.8 53.2 43 -0.3 31.4
12:25 1027 30.33 856 25.28 11.7 53.1 43 -0.4 31.3
12:30 1027 30.33 856 25.28 11.9 53.5 43 -0.2 31.7
12:35 1027 30.33 856 25.28 11.8 53.2 43 -0.2 31.7
12:40 1027 30.33 856 25.28 12.2 53.9 43 0.2 32.3
12:45 1027 30.33 856 25.28 13.2 55.8 40 0.1 32.1
12:50 1027 30.33 856 25.28 13.8 56.8 38 -0.1 31.7
12:55 1027 30.33 856 25.28 13 55.4 41 0.2 32.4
13:00 1027 30.33 856 25.28 13.9 56.9 37 -0.5 31.2
13:05 1027 30.33 856 25.28 14.5 58.2 38 0.5 33
13:10 1027 30.33 856 25.28 14.2 57.6 36 -0.7 30.8
13:15 1027 30.33 856 25.28 14.7 58.5 37 0.1 32.2
13:20 1027 30.33 856 25.28 14.4 57.9 37 0.1 32.2
13:25 1027 30.33 856 25.28 14.4 58 35 -0.8 30.6
13:30 1027 30.33 856 25.28 14.7 58.5 35 -0.3 31.5
13:35 1027 30.33 856 25.28 14.8 58.6 37 0.4 32.7
13:40 1027 30.33 856 25.28 14.2 57.6 39 0.6 33
13:45 1027 30.33 856 25.28 14.4 57.9 36 -0.3 31.5
13:50 1027 30.33 856 25.28 15 59 35 -0.2 31.6
13:55 1027 30.33 856 25.28 14.7 58.5 36 -0.1 31.9
14:00 1027 30.33 856 25.28 14.1 57.4 38 0.2 32.3
14:05 1026 30.3 856 25.28 13.4 56.1 39 -0.1 31.7
14:10 1026 30.3 856 25.28 14.2 57.5 37 -0.1 31.9
14:15 1026 30.3 855 25.25 14.4 58 37 -0.1 31.9
14:20 1026 30.3 855 25.25 15.9 60.5 35 0.4 32.7
14:25 1026 30.3 855 25.25 16.4 61.6 34 0.5 32.9
14:30 1026 30.3 855 25.25 15.8 60.4 35 0.3 32.5
14:35 1026 30.3 855 25.25 15.7 60.3 35 0.5 32.9
14:40 1026 30.3 855 25.25 16.1 60.9 34 0.4 32.8
14:45 1026 30.3 855 25.25 16.3 61.4 34 0.4 32.8
14:50 1026 30.3 855 25.25 16.6 62 33 0.3 32.6
14:55 1026 30.3 855 25.25 17.1 62.8 32 0.5 33
15:00 1026 30.3 855 25.25 17.4 63.4 32 0.8 33.4
15:05 1026 30.3 855 25.25 16.9 62.4 33 0.8 33.4
15:10 1026 30.3 855 25.25 16.9 62.5 33 0.7 33.2
15:15 1026 30.3 855 25.25 16.9 62.3 33 0.5 32.9
15:20 1026 30.3 855 25.25 16 60.8 33 -0.1 31.8
15:25 1026 30.3 855 25.25 16 60.7 34 0.1 32.1
15:30 1026 30.3 855 25.25 16.7 62 32 -0.2 31.7
15:35 1026 30.3 855 25.25 16.7 62 33 0.5 32.8
15:40 1026 30.3 855 25.25 16.6 61.8 32 0.1 32.2
15:45 1026 30.3 855 25.25 16.7 62 32 -0.1 31.8
15:50 1026 30.3 855 25.25 16.6 61.9 33 0.3 32.5
15:55 1026 30.3 855 25.25 16.3 61.3 32 -0.3 31.4
16:00 1026 30.3 855 25.25 16.7 62.1 32 0.1 32.2
16:05 1026 30.3 855 25.25 17.4 63.4 32 0.5 32.9
16:10 1026 30.3 855 25.25 17.7 63.9 32 0.8 33.5
16:15 1025 30.27 855 25.25 17.3 63.1 32 0.7 33.3
16:20 1026 30.3 855 25.25 16.9 62.5 33 0.5 33
16:25 1025 30.27 855 25.25 17.2 63 31 0.1 32.2
16:30 1025 30.27 855 25.25 17.3 63.1 32 0.4 32.7
16:35 1025 30.27 855 25.25 17.5 63.5 31 0.5 32.8
16:40 1025 30.27 855 25.25 16.8 62.2 35 1.2 34.1
16:45 1025 30.27 855 25.25 16.7 62.1 33 0.6 33.1
16:50 1025 30.27 855 25.25 16.4 61.6 35 0.9 33.7
16:55 1025 30.27 855 25.25 16.3 61.3 33 0.1 32.2
17:00 1025 30.27 855 25.25 17.1 62.7 32 0.4 32.7
17:05 1025 30.27 855 25.25 17.1 62.8 32 0.4 32.8
17:10 1025 30.27 855 25.25 16.9 62.3 33 0.7 33.2
17:15 1025 30.27 855 25.25 16.8 62.2 33 0.7 33.3
17:20 1025 30.27 855 25.25 16.1 61 34 0.3 32.5
17:25 1025 30.27 855 25.25 15.5 59.9 35 0.2 32.3
17:30 1025 30.27 855 25.25 15.9 60.6 33 -0.3 31.4
17:35 1025 30.27 855 25.25 15.6 60.1 35 0.2 32.4
17:40 1025 30.27 855 25.25 16.2 61.1 33 0.1 32.2
17:45 1025 30.27 854 25.22 16.6 61.9 32 0 32.1
17:50 1025 30.27 854 25.22 16.4 61.5 34 0.5 33
17:55 1025 30.27 854 25.22 16.4 61.6 34 0.4 32.8
18:00 1025 30.27 854 25.22 16.5 61.6 33 0.1 32.1
18:05 1025 30.27 854 25.22 16.2 61.2 34 0.3 32.6
18:10 1025 30.27 854 25.22 15.5 60 35 0.2 32.4
18:15 1025 30.27 854 25.22 15.7 60.3 34 0 32
18:20 1025 30.27 854 25.22 15.6 60.2 34 -0 32
18:25 1025 30.27 854 25.22 15.4 59.7 35 0.2 32.3
18:30 1025 30.27 854 25.22 15.4 59.7 35 0.2 32.3
18:35 1025 30.27 854 25.22 15.6 60 36 0.6 33.1
18:40 1025 30.27 854 25.22 15 59 38 0.7 33.3
18:45 1025 30.27 854 25.22 14.4 57.9 40 1 33.8
18:50 1025 30.27 854 25.22 14.1 57.4 41 1 33.8
18:55 1025 30.27 854 25.22 14.1 57.3 41 1.2 34.1
19:00 1025 30.27 854 25.22 14 57.3 42 1.3 34.4
19:05 1025 30.27 854 25.22 14 57.1 41 1 33.9
19:10 1025 30.27 854 25.22 13.8 56.9 41 0.9 33.7
19:15 1025 30.27 854 25.22 13.7 56.6 42 1.2 34.1
19:20 1025 30.27 854 25.22 13.6 56.4 43 1.3 34.4
19:25 1025 30.27 854 25.22 13.5 56.2 43 1.4 34.5
19:30 1025 30.27 854 25.22 13.6 56.4 43 1.3 34.3
19:35 1025 30.27 854 25.22 13.1 55.6 53 3.9 39
19:40 1025 30.27 854 25.22 11.2 52.1 60 3.9 39
19:45 1025 30.27 854 25.22 10.5 50.9 62 3.7 38.6
19:50 1025 30.27 854 25.22 10.1 50.1 65 3.8 38.8
19:55 1025 30.27 854 25.22 9.6 49.2 66 3.7 38.6
20:00 1025 30.27 854 25.22 9.3 48.7 67 3.5 38.4
20:05 1025 30.27 854 25.22 9 48.2 68 3.5 38.4
20:10 1025 30.27 854 25.22 8.8 47.8 69 3.5 38.2
20:15 1025 30.27 854 25.22 8.6 47.5 69 3.3 38
20:20 1025 30.27 854 25.22 8.6 47.4 69 3.2 37.8
20:25 1025 30.27 854 25.22 8.5 47.4 69 3.3 37.9
20:30 1025 30.27 854 25.22 8.5 47.2 69 3.2 37.8
20:35 1025 30.27 854 25.22 8.4 47 70 3.3 37.9
20:40 1025 30.27 854 25.22 8.2 46.7 71 3.2 37.7
20:45 1025 30.27 854 25.22 8 46.4 70 2.8 37.1
20:50 1025 30.27 854 25.22 8.1 46.6 68 2.5 36.6
20:55 1025 30.27 854 25.22 8.1 46.6 68 2.6 36.7
21:00 1025 30.27 854 25.22 8.1 46.7 68 2.6 36.7
21:05 1025 30.27 854 25.22 8 46.4 68 2.4 36.4
21:10 1025 30.27 855 25.25 8.1 46.5 68 2.5 36.5
21:15 1025 30.27 855 25.25 8.1 46.6 67 2.4 36.3
21:20 1025 30.27 855 25.25 8 46.4 69 2.6 36.7
21:25 1025 30.27 855 25.25 7.9 46.1 69 2.5 36.5
21:30 1025 30.27 855 25.25 7.9 46.2 68 2.3 36.2
21:35 1025 30.27 855 25.25 7.8 46 69 2.4 36.4
21:40 1025 30.27 855 25.25 7.6 45.7 70 2.4 36.4
21:45 1025 30.27 855 25.25 7.4 45.4 70 2.4 36.3
21:50 1025 30.27 855 25.25 7.3 45.2 70 2.3 36.1
21:55 1025 30.27 855 25.25 7.4 45.3 70 2.3 36.1
22:00 1025 30.27 855 25.25 7.4 45.3 70 2.3 36.1
22:05 1025 30.27 855 25.25 7.4 45.4 70 2.3 36.1
22:10 1025 30.27 855 25.25 7.3 45.2 71 2.4 36.3
22:15 1025 30.27 855 25.25 7.1 44.8 71 2.2 36
22:20 1025 30.27 855 25.25 7.3 45.1 69 2 35.6
22:25 1025 30.27 855 25.25 7.5 45.5 68 2.1 35.8
22:30 1025 30.27 855 25.25 7.6 45.6 67 1.9 35.5
22:35 1025 30.27 855 25.25 7.7 45.9 67 2.1 35.8
22:40 1026 30.3 855 25.25 7.7 45.9 69 2.5 36.5
22:45 1026 30.3 855 25.25 7.4 45.4 69 2.2 36
22:50 1026 30.3 855 25.25 7.4 45.3 71 2.5 36.4
22:55 1026 30.3 855 25.25 7.3 45.1 70 2.1 35.8
23:00 1025 30.27 855 25.25 7.3 45.1 71 2.3 36.1
23:05 1025 30.27 855 25.25 7 44.6 71 2.2 35.9
23:10 1025 30.27 855 25.25 6.9 44.5 72 2.3 36.1
23:15 1026 30.3 855 25.25 6.7 44.1 71 1.8 35.3
23:20 1025 30.27 855 25.25 7 44.6 71 2.1 35.8
23:25 1025 30.27 855 25.25 7 44.6 70 2 35.5
23:30 1025 30.27 855 25.25 6.7 44.1 72 2 35.7
23:35 1025 30.27 855 25.25 6.4 43.6 73 2 35.5
23:40 1025 30.27 855 25.25 6.3 43.3 73 1.8 35.3
23:45 1025 30.27 855 25.25 6.4 43.6 72 1.8 35.3
23:50 1025 30.27 855 25.25 6.6 43.9 71 1.8 35.2
23:55 1025 30.27 855 25.25 6.9 44.4 70 1.8 35.2
24:00 1025 30.27 855 25.25 7.1 44.7 69 1.8 35.2